createdAt,value
2018-12-22T00:00:54.194Z,0
2018-12-22T00:02:04.134Z,0
2018-12-22T00:03:13.816Z,0
2018-12-22T00:04:23.513Z,0
2018-12-22T00:05:33.213Z,0
2018-12-22T00:06:42.415Z,0
2018-12-22T00:07:51.861Z,0
2018-12-22T00:09:01.574Z,0
2018-12-22T00:10:11.675Z,0
2018-12-22T00:11:21.163Z,0
2018-12-22T00:12:30.858Z,0
2018-12-22T00:13:40.810Z,0
2018-12-22T00:14:50.752Z,0
2018-12-22T00:15:59.958Z,0
2018-12-22T00:17:09.908Z,0
2018-12-22T00:18:19.844Z,0
2018-12-22T00:19:29.802Z,0
2018-12-22T00:20:39.754Z,0
2018-12-22T00:21:49.437Z,0
2018-12-22T00:22:59.133Z,0
2018-12-22T00:24:09.192Z,0
2018-12-22T00:25:19.145Z,0
2018-12-22T00:26:29.177Z,0
2018-12-22T00:27:41.271Z,0
2018-12-22T00:28:51.218Z,0
2018-12-22T00:30:01.167Z,0
2018-12-22T00:31:10.867Z,0
2018-12-22T00:32:20.812Z,0
2018-12-22T00:33:30.776Z,0
2018-12-22T00:34:40.471Z,0
2018-12-22T00:35:50.413Z,0
2018-12-22T00:37:00.108Z,0
2018-12-22T00:38:10.063Z,0
2018-12-22T00:39:20.014Z,0
2018-12-22T00:40:29.975Z,0
2018-12-22T00:41:39.921Z,0
2018-12-22T00:42:49.096Z,0
2018-12-22T00:43:59.135Z,0
2018-12-22T00:45:08.883Z,0
2018-12-22T00:46:18.833Z,0
2018-12-22T00:47:28.541Z,0
2018-12-22T00:48:37.989Z,0
2018-12-22T00:49:47.699Z,0
2018-12-22T00:50:57.645Z,0
2018-12-22T00:52:07.335Z,0
2018-12-22T00:53:17.288Z,0
2018-12-22T00:54:27.415Z,0
2018-12-22T00:55:37.367Z,0
2018-12-22T00:56:47.051Z,0
2018-12-22T00:57:56.982Z,0
2018-12-22T00:59:06.919Z,0
2018-12-22T01:00:18.610Z,0
2018-12-22T01:01:28.303Z,0
2018-12-22T01:02:38.006Z,0
2018-12-22T01:03:47.696Z,0
2018-12-22T01:04:57.637Z,0
2018-12-22T01:06:07.596Z,0
2018-12-22T01:07:17.298Z,0
2018-12-22T01:08:27.232Z,0
2018-12-22T01:09:37.171Z,0
2018-12-22T01:10:47.098Z,0
2018-12-22T01:11:56.785Z,0
2018-12-22T01:13:06.497Z,0
2018-12-22T01:14:16.442Z,0
2018-12-22T01:15:26.118Z,0
2018-12-22T01:16:35.565Z,0
2018-12-22T01:17:45.269Z,0
2018-12-22T01:18:55.212Z,0
2018-12-22T01:20:05.158Z,0
2018-12-22T01:21:14.846Z,0
2018-12-22T01:22:24.549Z,0
2018-12-22T01:23:34.492Z,0
2018-12-22T01:24:44.202Z,0
2018-12-22T01:25:53.896Z,0
2018-12-22T01:27:03.830Z,0
2018-12-22T01:28:13.529Z,0
2018-12-22T01:29:23.215Z,0
2018-12-22T01:30:32.918Z,0
2018-12-22T01:31:42.870Z,0
2018-12-22T01:32:52.811Z,0
2018-12-22T01:34:02.750Z,0
2018-12-22T01:35:12.709Z,0
2018-12-22T01:36:22.665Z,0
2018-12-22T01:37:32.605Z,0
2018-12-22T01:38:42.049Z,0
2018-12-22T01:39:51.992Z,0
2018-12-22T01:41:01.925Z,0
2018-12-22T01:42:11.880Z,0
2018-12-22T01:43:21.813Z,0
2018-12-22T01:44:31.528Z,0
2018-12-22T01:45:41.466Z,0
2018-12-22T01:46:51.395Z,0
2018-12-22T01:48:01.354Z,0
2018-12-22T01:49:11.042Z,0
2018-12-22T01:50:20.733Z,0
2018-12-22T01:51:30.683Z,0
2018-12-22T01:52:40.639Z,0
2018-12-22T01:53:50.592Z,0
2018-12-22T01:55:00.284Z,0
2018-12-22T01:56:09.982Z,0
2018-12-22T01:57:19.680Z,0
2018-12-22T01:58:29.370Z,0
2018-12-22T01:59:39.069Z,0
2018-12-22T02:00:48.773Z,0
2018-12-22T02:01:58.451Z,0
2018-12-22T02:03:08.151Z,0
2018-12-22T02:04:18.094Z,0
2018-12-22T02:05:28.041Z,0
2018-12-22T02:06:37.728Z,0
2018-12-22T02:07:47.701Z,0
2018-12-22T02:08:57.393Z,0
2018-12-22T02:10:07.074Z,0
2018-12-22T02:11:16.803Z,0
2018-12-22T02:12:26.485Z,0
2018-12-22T02:13:36.437Z,0
2018-12-22T02:14:46.371Z,0
2018-12-22T02:15:56.064Z,0
2018-12-22T02:17:05.748Z,0
2018-12-22T02:18:15.442Z,0
2018-12-22T02:19:25.374Z,0
2018-12-22T02:20:35.311Z,0
2018-12-22T02:21:45.266Z,0
2018-12-22T02:22:54.957Z,0
2018-12-22T02:24:04.901Z,0
2018-12-22T02:25:14.615Z,0
2018-12-22T02:26:24.297Z,0
2018-12-22T02:27:33.994Z,0
2018-12-22T02:28:43.673Z,0
2018-12-22T02:29:53.224Z,0
2018-12-22T02:31:02.931Z,0
2018-12-22T02:32:12.389Z,0
2018-12-22T02:33:22.348Z,0
2018-12-22T02:34:32.058Z,0
2018-12-22T02:35:42.002Z,0
2018-12-22T02:36:51.753Z,0
2018-12-22T02:38:01.444Z,0
2018-12-22T02:39:11.395Z,0
2018-12-22T02:40:21.372Z,0
2018-12-22T02:41:31.076Z,0
2018-12-22T02:42:40.788Z,0
2018-12-22T02:43:50.739Z,0
2018-12-22T02:45:00.189Z,0
2018-12-22T02:46:09.872Z,0
2018-12-22T02:47:19.821Z,0
2018-12-22T02:48:29.043Z,0
2018-12-22T02:49:38.757Z,0
2018-12-22T02:50:48.476Z,0
2018-12-22T02:51:58.422Z,0
2018-12-22T02:53:08.472Z,0
2018-12-22T02:54:18.163Z,0
2018-12-22T02:55:27.369Z,0
2018-12-22T02:56:37.059Z,0
2018-12-22T02:57:47.000Z,0
2018-12-22T02:59:05.601Z,0
2018-12-22T03:00:15.807Z,0
2018-12-22T03:01:25.760Z,0
2018-12-22T03:02:35.712Z,0
2018-12-22T03:03:45.406Z,0
2018-12-22T03:04:55.354Z,0
2018-12-22T03:06:05.311Z,0
2018-12-22T03:07:15.003Z,0
2018-12-22T03:08:24.965Z,0
2018-12-22T03:09:34.841Z,0
2018-12-22T03:10:44.867Z,0
2018-12-22T03:11:54.815Z,0
2018-12-22T03:13:04.756Z,0
2018-12-22T03:14:14.207Z,0
2018-12-22T03:15:24.174Z,0
2018-12-22T03:16:34.125Z,0
2018-12-22T03:17:44.188Z,0
2018-12-22T03:18:54.126Z,0
2018-12-22T03:20:03.601Z,0
2018-12-22T03:21:13.366Z,0
2018-12-22T03:22:23.476Z,0
2018-12-22T03:23:33.187Z,0
2018-12-22T03:24:43.218Z,0
2018-12-22T03:25:53.164Z,0
2018-12-22T03:27:02.847Z,0
2018-12-22T03:28:12.801Z,0
2018-12-22T03:29:25.460Z,0
2018-12-22T03:30:35.446Z,0
2018-12-22T03:31:45.484Z,0
2018-12-22T03:32:55.498Z,0
2018-12-22T03:34:05.436Z,0
2018-12-22T03:35:15.145Z,0
2018-12-22T03:36:24.838Z,0
2018-12-22T03:37:34.779Z,0
2018-12-22T03:38:44.753Z,0
2018-12-22T03:39:54.694Z,0
2018-12-22T03:41:04.629Z,0
2018-12-22T03:42:14.316Z,0
2018-12-22T03:43:23.762Z,0
2018-12-22T03:44:33.443Z,0
2018-12-22T03:45:42.903Z,0
2018-12-22T03:46:52.847Z,0
2018-12-22T03:48:02.560Z,0
2018-12-22T03:49:12.501Z,0
2018-12-22T03:50:22.457Z,0
2018-12-22T03:51:32.502Z,0
2018-12-22T03:52:42.444Z,0
2018-12-22T03:53:52.387Z,0
2018-12-22T03:55:02.341Z,0
2018-12-22T03:56:11.825Z,0
2018-12-22T03:57:21.766Z,0
2018-12-22T03:58:31.705Z,0
2018-12-22T03:59:41.645Z,0
2018-12-22T04:00:51.586Z,0
2018-12-22T04:02:01.324Z,0
2018-12-22T04:03:11.973Z,0
2018-12-22T04:04:22.053Z,0
2018-12-22T04:05:31.852Z,0
2018-12-22T04:06:41.793Z,0
2018-12-22T04:07:51.233Z,0
2018-12-22T04:09:01.180Z,0
2018-12-22T04:10:10.874Z,0
2018-12-22T04:11:20.572Z,0
2018-12-22T04:12:30.525Z,0
2018-12-22T04:13:39.978Z,0
2018-12-22T04:14:49.927Z,0
2018-12-22T04:15:59.882Z,0
2018-12-22T04:17:09.821Z,0
2018-12-22T04:18:19.772Z,0
2018-12-22T04:19:29.473Z,0
2018-12-22T04:20:39.423Z,0
2018-12-22T04:21:49.476Z,0
2018-12-22T04:22:59.164Z,0
2018-12-22T04:24:09.128Z,0
2018-12-22T04:25:19.078Z,0
2018-12-22T04:26:28.803Z,0
2018-12-22T04:27:38.486Z,0
2018-12-22T04:28:47.919Z,0
2018-12-22T04:29:57.850Z,0
2018-12-22T04:31:07.798Z,0
2018-12-22T04:32:17.507Z,0
2018-12-22T04:33:27.446Z,0
2018-12-22T04:34:37.403Z,0
2018-12-22T04:35:47.362Z,0
2018-12-22T04:36:57.317Z,0
2018-12-22T04:38:07.014Z,0
2018-12-22T04:39:16.706Z,0
2018-12-22T04:40:26.666Z,0
2018-12-22T04:41:36.351Z,0
2018-12-22T04:42:46.355Z,0
2018-12-22T04:43:56.285Z,0
2018-12-22T04:45:05.720Z,0
2018-12-22T04:46:15.483Z,0
2018-12-22T04:47:25.427Z,0
2018-12-22T04:48:35.372Z,0
2018-12-22T04:49:45.342Z,0
2018-12-22T04:50:55.264Z,0
2018-12-22T04:52:05.304Z,0
2018-12-22T04:53:15.021Z,0
2018-12-22T04:54:24.702Z,0
2018-12-22T04:55:34.656Z,0
2018-12-22T04:56:44.603Z,0
2018-12-22T04:57:54.644Z,0
2018-12-22T04:59:04.590Z,0
2018-12-22T05:00:14.392Z,0
2018-12-22T05:01:24.340Z,0
2018-12-22T05:02:34.283Z,0
2018-12-22T05:03:44.238Z,0
2018-12-22T05:04:54.177Z,0
2018-12-22T05:06:04.161Z,0
2018-12-22T05:07:14.127Z,0
2018-12-22T05:08:23.690Z,0
2018-12-22T05:09:33.652Z,0
2018-12-22T05:10:43.615Z,0
2018-12-22T05:11:53.571Z,0
2018-12-22T05:13:03.533Z,0
2018-12-22T05:14:13.224Z,0
2018-12-22T05:15:23.180Z,0
2018-12-22T05:16:32.975Z,0
2018-12-22T05:17:42.920Z,0
2018-12-22T05:18:52.854Z,0
2018-12-22T05:20:02.808Z,0
2018-12-22T05:21:12.736Z,0
2018-12-22T05:22:22.688Z,0
2018-12-22T05:23:32.742Z,0
2018-12-22T05:24:42.183Z,0
2018-12-22T05:25:52.126Z,0
2018-12-22T05:27:01.819Z,0
2018-12-22T05:28:11.519Z,0
2018-12-22T05:29:21.211Z,0
2018-12-22T05:30:31.140Z,0
2018-12-22T05:31:41.075Z,0
2018-12-22T05:32:51.200Z,0
2018-12-22T05:34:00.884Z,0
2018-12-22T05:35:10.872Z,0
2018-12-22T05:36:20.566Z,0
2018-12-22T05:37:30.527Z,0
2018-12-22T05:38:40.462Z,0
2018-12-22T05:39:50.159Z,0
2018-12-22T05:40:59.859Z,0
2018-12-22T05:42:09.799Z,0
2018-12-22T05:43:19.500Z,0
2018-12-22T05:44:29.431Z,0
2018-12-22T05:45:39.368Z,0
2018-12-22T05:46:49.329Z,0
2018-12-22T05:47:59.025Z,0
2018-12-22T05:49:08.960Z,0
2018-12-22T05:50:18.657Z,0
2018-12-22T05:51:28.603Z,0
2018-12-22T05:52:38.541Z,0
2018-12-22T05:53:48.478Z,0
2018-12-22T05:54:57.913Z,0
2018-12-22T05:56:07.842Z,0
2018-12-22T05:57:17.782Z,0
2018-12-22T05:58:27.736Z,0
2018-12-22T05:59:37.671Z,0
2018-12-22T06:00:47.624Z,0
2018-12-22T06:01:57.576Z,0
2018-12-22T06:03:07.267Z,0
2018-12-22T06:04:17.218Z,0
2018-12-22T06:05:27.147Z,0
2018-12-22T06:06:36.843Z,0
2018-12-22T06:07:46.297Z,0
2018-12-22T06:08:55.987Z,0
2018-12-22T06:10:05.927Z,0
2018-12-22T06:11:15.368Z,0
2018-12-22T06:12:25.053Z,0
2018-12-22T06:13:34.986Z,0
2018-12-22T06:14:44.422Z,0
2018-12-22T06:15:53.854Z,0
2018-12-22T06:17:03.812Z,0
2018-12-22T06:18:13.519Z,0
2018-12-22T06:19:23.202Z,0
2018-12-22T06:20:32.641Z,0
2018-12-22T06:21:42.071Z,0
2018-12-22T06:22:51.762Z,0
2018-12-22T06:24:01.696Z,0
2018-12-22T06:25:11.651Z,0
2018-12-22T06:26:21.585Z,0
2018-12-22T06:27:31.527Z,0
2018-12-22T06:28:41.472Z,0
2018-12-22T06:29:51.423Z,0
2018-12-22T06:31:01.123Z,0
2018-12-22T06:32:10.819Z,0
2018-12-22T06:33:20.771Z,0
2018-12-22T06:34:30.707Z,0
2018-12-22T06:35:40.644Z,0
2018-12-22T06:36:50.102Z,0
2018-12-22T06:38:00.108Z,0
2018-12-22T06:39:10.051Z,0
2018-12-22T06:40:19.999Z,0
2018-12-22T06:41:29.930Z,0
2018-12-22T06:42:39.871Z,0
2018-12-22T06:43:49.823Z,0
2018-12-22T06:44:59.769Z,0
2018-12-22T06:46:09.741Z,0
2018-12-22T06:47:19.432Z,0
2018-12-22T06:48:29.123Z,0
2018-12-22T06:49:39.061Z,0
2018-12-22T06:50:49.015Z,0
2018-12-22T06:51:58.968Z,0
2018-12-22T06:53:08.424Z,0
2018-12-22T06:54:18.360Z,0
2018-12-22T06:55:28.043Z,0
2018-12-22T06:56:38.006Z,0
2018-12-22T06:57:47.447Z,0
2018-12-22T06:58:57.139Z,0
2018-12-22T07:00:07.073Z,0
2018-12-22T07:01:17.052Z,0
2018-12-22T07:02:26.736Z,0
2018-12-22T07:03:36.719Z,0
2018-12-22T07:04:46.413Z,0
2018-12-22T07:05:56.355Z,0
2018-12-22T07:07:06.057Z,0
2018-12-22T07:08:16.009Z,0
2018-12-22T07:09:25.955Z,0
2018-12-22T07:10:35.896Z,0
2018-12-22T07:11:45.823Z,0
2018-12-22T07:12:55.771Z,0
2018-12-22T07:14:05.211Z,5
2018-12-22T07:15:14.911Z,5
2018-12-22T07:16:24.601Z,5
2018-12-22T07:17:34.543Z,5
2018-12-22T07:18:44.479Z,5
2018-12-22T07:19:53.925Z,10
2018-12-22T07:21:03.629Z,10
2018-12-22T07:22:13.599Z,10
2018-12-22T07:23:23.029Z,15
2018-12-22T07:24:32.990Z,15
2018-12-22T07:25:42.939Z,15
2018-12-22T07:26:52.639Z,15
2018-12-22T07:28:02.409Z,20
2018-12-22T07:29:12.375Z,20
2018-12-22T07:30:30.934Z,20
2018-12-22T07:31:40.620Z,20
2018-12-22T07:32:59.205Z,25
2018-12-22T07:34:08.902Z,25
2018-12-22T07:35:18.632Z,30
2018-12-22T07:36:29.863Z,30
2018-12-22T07:37:39.316Z,30
2018-12-22T07:38:49.009Z,30
2018-12-22T07:39:58.716Z,25
2018-12-22T07:41:08.406Z,25
2018-12-22T07:42:18.465Z,25
2018-12-22T07:43:28.410Z,30
2018-12-22T07:44:37.849Z,25
2018-12-22T07:45:47.787Z,25
2018-12-22T07:46:57.718Z,25
2018-12-22T07:48:07.411Z,30
2018-12-22T07:49:16.857Z,25
2018-12-22T07:50:26.809Z,25
2018-12-22T07:51:36.506Z,20
2018-12-22T07:52:53.917Z,30
2018-12-22T07:54:03.614Z,35
2018-12-22T07:55:13.297Z,35
2018-12-22T07:56:22.729Z,40
2018-12-22T07:57:32.983Z,35
2018-12-22T07:58:42.931Z,35
2018-12-22T07:59:52.890Z,45
2018-12-22T08:01:02.593Z,45
2018-12-22T08:02:12.564Z,45
2018-12-22T08:03:23.256Z,50
2018-12-22T08:04:33.199Z,60
2018-12-22T08:05:48.166Z,70
2018-12-22T08:06:57.878Z,75
2018-12-22T08:08:07.571Z,80
2018-12-22T08:09:17.269Z,75
2018-12-22T08:10:27.221Z,65
2018-12-22T08:11:37.177Z,65
2018-12-22T08:12:47.122Z,70
2018-12-22T08:13:56.822Z,65
2018-12-22T08:15:06.763Z,55
2018-12-22T08:16:16.470Z,45
2018-12-22T08:17:26.417Z,40
2018-12-22T08:18:35.879Z,40
2018-12-22T08:19:45.570Z,45
2018-12-22T08:20:55.034Z,45
2018-12-22T08:22:04.998Z,45
2018-12-22T08:23:14.708Z,45
2018-12-22T08:24:24.412Z,50
2018-12-22T08:25:34.360Z,55
2018-12-22T08:26:43.792Z,50
2018-12-22T08:27:53.763Z,45
2018-12-22T08:29:03.215Z,45
2018-12-22T08:30:13.158Z,45
2018-12-22T08:31:23.243Z,45
2018-12-22T08:32:33.206Z,50
2018-12-22T08:33:42.921Z,55
2018-12-22T08:34:52.886Z,60
2018-12-22T08:36:02.837Z,70
2018-12-22T08:37:12.788Z,70
2018-12-22T08:38:22.739Z,65
2018-12-22T08:39:32.422Z,70
2018-12-22T08:40:42.132Z,50
2018-12-22T08:41:51.820Z,45
2018-12-22T08:43:01.524Z,45
2018-12-22T08:44:11.456Z,50
2018-12-22T08:45:21.143Z,50
2018-12-22T08:46:31.085Z,55
2018-12-22T08:47:40.789Z,80
2018-12-22T08:48:50.745Z,75
2018-12-22T08:50:08.703Z,70
2018-12-22T08:51:18.464Z,80
2018-12-22T08:52:27.904Z,80
2018-12-22T08:53:37.602Z,95
2018-12-22T08:54:47.535Z,110
2018-12-22T08:55:57.249Z,85
2018-12-22T08:57:07.288Z,70
2018-12-22T08:58:16.973Z,65
2018-12-22T08:59:26.928Z,70
2018-12-22T09:00:37.026Z,85
2018-12-22T09:01:46.746Z,90
2018-12-22T09:02:57.173Z,90
2018-12-22T09:04:06.856Z,70
2018-12-22T09:05:16.806Z,65
2018-12-22T09:06:26.522Z,70
2018-12-22T09:07:36.217Z,65
2018-12-22T09:08:46.256Z,60
2018-12-22T09:09:55.964Z,60
2018-12-22T09:11:05.658Z,65
2018-12-22T09:12:15.610Z,70
2018-12-22T09:13:30.441Z,90
2018-12-22T09:14:40.400Z,75
2018-12-22T09:15:50.341Z,90
2018-12-22T09:17:00.034Z,95
2018-12-22T09:18:09.984Z,90
2018-12-22T09:19:19.951Z,85
2018-12-22T09:20:31.743Z,85
2018-12-22T09:21:41.282Z,95
2018-12-22T09:22:51.225Z,85
2018-12-22T09:24:01.273Z,75
2018-12-22T09:25:10.972Z,70
2018-12-22T09:26:20.936Z,65
2018-12-22T09:27:30.382Z,55
2018-12-22T09:28:40.563Z,55
2018-12-22T09:29:50.271Z,50
2018-12-22T09:31:07.842Z,40
2018-12-22T09:32:17.563Z,40
2018-12-22T09:33:27.531Z,40
2018-12-22T09:34:37.475Z,45
2018-12-22T09:35:46.917Z,45
2018-12-22T09:36:56.646Z,40
2018-12-22T09:38:06.597Z,35
2018-12-22T09:39:16.062Z,35
2018-12-22T09:40:25.763Z,45
2018-12-22T09:41:35.468Z,45
2018-12-22T09:42:45.222Z,40
2018-12-22T09:43:54.925Z,40
2018-12-22T09:45:04.674Z,50
2018-12-22T09:46:14.725Z,70
2018-12-22T09:47:24.677Z,55
2018-12-22T09:48:34.375Z,40
2018-12-22T09:49:44.347Z,35
2018-12-22T09:50:53.793Z,35
2018-12-22T09:52:03.749Z,35
2018-12-22T09:53:14.584Z,40
2018-12-22T09:54:24.548Z,45
2018-12-22T09:55:34.543Z,45
2018-12-22T09:56:44.507Z,45
2018-12-22T09:57:54.241Z,40
2018-12-22T09:59:03.941Z,40
2018-12-22T10:00:13.625Z,35
2018-12-22T10:01:23.053Z,35
2018-12-22T10:02:33.007Z,35
2018-12-22T10:03:42.945Z,35
2018-12-22T10:04:52.893Z,35
2018-12-22T10:06:02.843Z,35
2018-12-22T10:07:12.779Z,35
2018-12-22T10:08:22.758Z,30
2018-12-22T10:09:32.218Z,30
2018-12-22T10:10:42.167Z,30
2018-12-22T10:11:51.862Z,30
2018-12-22T10:13:01.811Z,30
2018-12-22T10:14:11.870Z,30
2018-12-22T10:15:21.818Z,30
2018-12-22T10:16:31.540Z,25
2018-12-22T10:17:41.483Z,25
2018-12-22T10:18:51.426Z,25
2018-12-22T10:20:00.891Z,25
2018-12-22T10:21:10.834Z,25
2018-12-22T10:22:23.032Z,20
2018-12-22T10:23:32.736Z,20
2018-12-22T10:24:42.679Z,20
2018-12-22T10:25:52.610Z,20
2018-12-22T10:27:02.534Z,25
2018-12-22T10:28:12.238Z,25
2018-12-22T10:29:21.931Z,25
2018-12-22T10:30:31.371Z,25
2018-12-22T10:31:41.067Z,30
2018-12-22T10:32:51.020Z,35
2018-12-22T10:34:00.716Z,40
2018-12-22T10:35:10.155Z,40
2018-12-22T10:36:20.097Z,40
2018-12-22T10:37:29.805Z,40
2018-12-22T10:38:39.257Z,40
2018-12-22T10:39:48.818Z,45
2018-12-22T10:40:58.780Z,50
2018-12-22T10:42:08.778Z,55
2018-12-22T10:43:18.220Z,65
2018-12-22T10:44:28.165Z,65
2018-12-22T10:45:38.127Z,65
2018-12-22T10:46:47.832Z,70
2018-12-22T10:47:57.809Z,75
2018-12-22T10:49:07.259Z,75
2018-12-22T10:50:17.203Z,70
2018-12-22T10:51:33.949Z,70
2018-12-22T10:52:43.664Z,65
2018-12-22T10:53:53.609Z,65
2018-12-22T10:55:03.567Z,65
2018-12-22T10:56:13.264Z,60
2018-12-22T10:57:23.213Z,70
2018-12-22T10:58:33.171Z,75
2018-12-22T10:59:43.128Z,75
2018-12-22T11:00:53.190Z,70
2018-12-22T11:02:02.906Z,65
2018-12-22T11:03:12.583Z,65
2018-12-22T11:04:22.273Z,70
2018-12-22T11:05:32.221Z,80
2018-12-22T11:06:42.151Z,85
2018-12-22T11:07:51.867Z,90
2018-12-22T11:09:01.555Z,100
2018-12-22T11:10:11.257Z,95
2018-12-22T11:11:20.967Z,85
2018-12-22T11:12:30.949Z,85
2018-12-22T11:13:40.631Z,100
2018-12-22T11:14:50.325Z,100
2018-12-22T11:16:00.269Z,95
2018-12-22T11:17:10.234Z,95
2018-12-22T11:18:20.178Z,95
2018-12-22T11:19:30.130Z,100
2018-12-22T11:20:40.073Z,105
2018-12-22T11:21:49.765Z,100
2018-12-22T11:22:59.721Z,100
2018-12-22T11:24:09.948Z,110
2018-12-22T11:25:19.638Z,110
2018-12-22T11:26:29.577Z,115
2018-12-22T11:27:39.266Z,130
2018-12-22T11:28:49.203Z,130
2018-12-22T11:29:59.134Z,135
2018-12-22T11:31:09.073Z,155
2018-12-22T11:32:19.032Z,170
2018-12-22T11:33:28.735Z,175
2018-12-22T11:34:38.686Z,165
2018-12-22T11:35:48.382Z,150
2018-12-22T11:36:58.069Z,145
2018-12-22T11:38:08.031Z,150
2018-12-22T11:39:18.087Z,160
2018-12-22T11:40:27.800Z,180
2018-12-22T11:41:37.733Z,220
2018-12-22T11:42:54.804Z,230
2018-12-22T11:44:04.762Z,210
2018-12-22T11:45:14.459Z,200
2018-12-22T11:46:24.196Z,200
2018-12-22T11:47:33.894Z,215
2018-12-22T11:48:43.843Z,215
2018-12-22T11:49:53.899Z,210
2018-12-22T11:51:03.587Z,190
2018-12-22T11:52:13.300Z,180
2018-12-22T11:53:23.234Z,200
2018-12-22T11:54:32.687Z,220
2018-12-22T11:55:42.638Z,240
2018-12-22T11:56:52.576Z,265
2018-12-22T11:58:02.531Z,265
2018-12-22T11:59:12.476Z,270
2018-12-22T12:00:22.431Z,270
2018-12-22T12:01:32.142Z,260
2018-12-22T12:02:42.095Z,240
2018-12-22T12:03:52.163Z,235
2018-12-22T12:05:01.877Z,235
2018-12-22T12:06:11.564Z,220
2018-12-22T12:07:21.259Z,185
2018-12-22T12:08:30.972Z,165
2018-12-22T12:09:40.684Z,155
2018-12-22T12:10:50.634Z,145
2018-12-22T12:12:00.568Z,135
2018-12-22T12:13:10.125Z,120
2018-12-22T12:14:19.562Z,110
2018-12-22T12:15:29.266Z,100
2018-12-22T12:16:39.231Z,85
2018-12-22T12:17:48.932Z,75
2018-12-22T12:18:58.872Z,65
2018-12-22T12:20:08.564Z,60
2018-12-22T12:21:18.246Z,55
2018-12-22T12:22:27.927Z,45
2018-12-22T12:23:37.615Z,45
2018-12-22T12:24:47.322Z,45
2018-12-22T12:25:57.025Z,45
2018-12-22T12:27:06.958Z,40
2018-12-22T12:28:16.915Z,40
2018-12-22T12:29:26.617Z,40
2018-12-22T12:30:36.308Z,50
2018-12-22T12:31:54.421Z,55
2018-12-22T12:33:03.628Z,55
2018-12-22T12:34:13.325Z,70
2018-12-22T12:35:23.028Z,75
2018-12-22T12:36:33.094Z,90
2018-12-22T12:37:42.526Z,95
2018-12-22T12:38:52.257Z,115
2018-12-22T12:40:02.194Z,150
2018-12-22T12:41:12.170Z,165
2018-12-22T12:42:22.355Z,175
2018-12-22T12:43:32.314Z,185
2018-12-22T12:44:42.314Z,200
2018-12-22T12:45:52.368Z,225
2018-12-22T12:47:02.313Z,245
2018-12-22T12:48:12.258Z,265
2018-12-22T12:49:21.968Z,290
2018-12-22T12:50:31.927Z,310
2018-12-22T12:51:41.875Z,310
2018-12-22T12:52:51.314Z,300
2018-12-22T12:54:01.280Z,280
2018-12-22T12:55:13.264Z,260
2018-12-22T12:56:23.235Z,255
2018-12-22T12:57:34.098Z,225
2018-12-22T12:58:44.068Z,205
2018-12-22T12:59:53.516Z,180
2018-12-22T13:01:03.475Z,145
2018-12-22T13:02:13.434Z,135
2018-12-22T13:03:23.387Z,120
2018-12-22T13:04:33.353Z,115
2018-12-22T13:05:43.315Z,105
2018-12-22T13:06:53.016Z,105
2018-12-22T13:08:02.987Z,105
2018-12-22T13:09:15.680Z,95
2018-12-22T13:10:25.605Z,90
2018-12-22T13:11:35.549Z,100
2018-12-22T13:12:45.611Z,110
2018-12-22T13:13:55.313Z,110
2018-12-22T13:15:05.013Z,100
2018-12-22T13:16:14.705Z,90
2018-12-22T13:17:24.670Z,90
2018-12-22T13:18:34.343Z,90
2018-12-22T13:19:44.049Z,90
2018-12-22T13:20:54.099Z,90
2018-12-22T13:22:03.805Z,90
2018-12-22T13:23:13.743Z,75
2018-12-22T13:24:25.771Z,75
2018-12-22T13:25:35.798Z,80
2018-12-22T13:26:46.636Z,70
2018-12-22T13:27:56.069Z,60
2018-12-22T13:29:06.039Z,50
2018-12-22T13:30:16.141Z,50
2018-12-22T13:31:25.592Z,60
2018-12-22T13:32:35.529Z,80
2018-12-22T13:33:46.109Z,70
2018-12-22T13:34:56.054Z,75
2018-12-22T13:36:05.989Z,75
2018-12-22T13:37:15.929Z,65
2018-12-22T13:38:25.871Z,60
2018-12-22T13:39:35.889Z,65
2018-12-22T13:40:45.578Z,60
2018-12-22T13:41:55.525Z,60
2018-12-22T13:43:05.482Z,55
2018-12-22T13:44:15.438Z,50
2018-12-22T13:45:25.147Z,50
2018-12-22T13:46:34.591Z,50
2018-12-22T13:47:45.761Z,45
2018-12-22T13:48:56.692Z,50
2018-12-22T13:50:07.482Z,55
2018-12-22T13:51:18.444Z,60
2018-12-22T13:52:29.847Z,60
2018-12-22T13:53:39.796Z,60
2018-12-22T13:54:49.513Z,55
2018-12-22T13:55:59.468Z,50
2018-12-22T13:57:09.176Z,45
2018-12-22T13:58:18.889Z,40
2018-12-22T13:59:28.358Z,40
2018-12-22T14:00:38.053Z,40
2018-12-22T14:01:47.504Z,35
2018-12-22T14:02:57.038Z,35
2018-12-22T14:04:06.993Z,35
2018-12-22T14:05:16.688Z,30
2018-12-22T14:06:26.627Z,30
2018-12-22T14:07:36.645Z,30
2018-12-22T14:08:46.339Z,30
2018-12-22T14:09:56.286Z,30
2018-12-22T14:11:06.246Z,25
2018-12-22T14:12:15.946Z,25
2018-12-22T14:13:25.877Z,25
2018-12-22T14:14:35.854Z,25
2018-12-22T14:15:45.568Z,20
2018-12-22T14:16:55.355Z,20
2018-12-22T14:18:05.326Z,20
2018-12-22T14:19:15.030Z,15
2018-12-22T14:20:24.983Z,15
2018-12-22T14:21:34.941Z,15
2018-12-22T14:22:44.880Z,15
2018-12-22T14:23:54.450Z,15
2018-12-22T14:25:04.441Z,15
2018-12-22T14:26:14.141Z,15
2018-12-22T14:27:24.090Z,15
2018-12-22T14:28:34.042Z,15
2018-12-22T14:29:43.978Z,15
2018-12-22T14:30:53.943Z,15
2018-12-22T14:32:03.904Z,15
2018-12-22T14:33:13.843Z,15
2018-12-22T14:34:23.545Z,15
2018-12-22T14:35:33.234Z,15
2018-12-22T14:36:42.932Z,15
2018-12-22T14:37:52.610Z,10
2018-12-22T14:39:02.315Z,15
2018-12-22T14:40:13.660Z,10
2018-12-22T14:41:23.629Z,10
2018-12-22T14:42:33.573Z,10
2018-12-22T14:43:43.559Z,10
2018-12-22T14:44:53.504Z,10
2018-12-22T14:46:03.447Z,5
2018-12-22T14:47:13.132Z,10
2018-12-22T14:48:22.823Z,10
2018-12-22T14:49:32.772Z,10
2018-12-22T14:50:42.724Z,10
2018-12-22T14:51:52.689Z,10
2018-12-22T14:53:02.634Z,10
2018-12-22T14:54:12.594Z,10
2018-12-22T14:55:22.555Z,10
2018-12-22T14:56:32.515Z,10
2018-12-22T14:57:42.476Z,5
2018-12-22T14:58:52.168Z,5
2018-12-22T15:00:02.130Z,5
2018-12-22T15:01:12.078Z,5
2018-12-22T15:02:22.030Z,5
2018-12-22T15:03:31.996Z,5
2018-12-22T15:04:43.232Z,0
2018-12-22T15:05:53.172Z,0
2018-12-22T15:07:02.875Z,0
2018-12-22T15:08:12.816Z,0
2018-12-22T15:09:23.173Z,0
2018-12-22T15:10:33.122Z,0
2018-12-22T15:11:43.082Z,0
2018-12-22T15:12:52.766Z,0
2018-12-22T15:14:02.461Z,0
2018-12-22T15:15:12.421Z,0
2018-12-22T15:16:21.863Z,0
2018-12-22T15:17:31.553Z,0
2018-12-22T15:18:41.257Z,0
2018-12-22T15:19:50.971Z,0
2018-12-22T15:21:00.918Z,0
2018-12-22T15:22:11.451Z,0
2018-12-22T15:23:21.409Z,0
2018-12-22T15:24:31.356Z,0
2018-12-22T15:25:41.333Z,0
2018-12-22T15:26:51.271Z,0
2018-12-22T15:28:01.249Z,0
2018-12-22T15:29:11.218Z,0
2018-12-22T15:30:21.176Z,0
2018-12-22T15:31:31.135Z,0
2018-12-22T15:32:57.093Z,0
2018-12-22T15:34:06.772Z,0
2018-12-22T15:35:16.713Z,0
2018-12-22T15:36:26.427Z,0
2018-12-22T15:37:36.127Z,0
2018-12-22T15:38:45.818Z,0
2018-12-22T15:39:55.773Z,0
2018-12-22T15:41:05.210Z,0
2018-12-22T15:42:15.163Z,0
2018-12-22T15:43:25.130Z,0
2018-12-22T15:44:34.822Z,0
2018-12-22T15:45:44.762Z,0
2018-12-22T15:46:54.700Z,0
2018-12-22T15:48:04.397Z,0
2018-12-22T15:49:14.471Z,0
2018-12-22T15:50:24.417Z,0
2018-12-22T15:51:34.115Z,0
2018-12-22T15:52:43.814Z,0
2018-12-22T15:53:53.760Z,0
2018-12-22T15:55:03.726Z,0
2018-12-22T15:56:13.675Z,0
2018-12-22T15:57:23.627Z,0
2018-12-22T15:58:33.573Z,0
2018-12-22T15:59:43.516Z,0
2018-12-22T16:00:53.460Z,0
2018-12-22T16:02:03.463Z,0
2018-12-22T16:03:13.158Z,0
2018-12-22T16:04:22.842Z,0
2018-12-22T16:05:32.775Z,0
2018-12-22T16:06:42.718Z,0
2018-12-22T16:07:52.406Z,0
2018-12-22T16:09:02.225Z,0
2018-12-22T16:10:12.176Z,0
2018-12-22T16:11:22.139Z,0
2018-12-22T16:12:32.101Z,0
2018-12-22T16:13:42.041Z,0
2018-12-22T16:14:51.990Z,0
2018-12-22T16:16:01.939Z,0
2018-12-22T16:17:11.891Z,0
2018-12-22T16:18:21.343Z,0
2018-12-22T16:19:31.293Z,0
2018-12-22T16:20:42.147Z,0
2018-12-22T16:21:51.875Z,0
2018-12-22T16:23:01.826Z,0
2018-12-22T16:24:11.531Z,0
2018-12-22T16:25:21.513Z,0
2018-12-22T16:26:33.176Z,0
2018-12-22T16:27:43.263Z,0
2018-12-22T16:28:53.221Z,0
2018-12-22T16:30:02.915Z,0
2018-12-22T16:31:12.877Z,0
2018-12-22T16:32:22.819Z,0
2018-12-22T16:33:32.545Z,0
2018-12-22T16:34:42.237Z,0
2018-12-22T16:35:52.195Z,0
2018-12-22T16:37:02.170Z,0
2018-12-22T16:38:13.752Z,0
2018-12-22T16:39:23.715Z,0
2018-12-22T16:40:33.177Z,0
2018-12-22T16:41:43.121Z,0
2018-12-22T16:42:53.123Z,0
2018-12-22T16:44:03.071Z,0
2018-12-22T16:45:13.057Z,0
2018-12-22T16:46:23.016Z,0
2018-12-22T16:47:32.703Z,0
2018-12-22T16:48:42.407Z,0
2018-12-22T16:49:52.364Z,0
2018-12-22T16:51:02.074Z,0
2018-12-22T16:52:12.035Z,0
2018-12-22T16:53:21.734Z,0
2018-12-22T16:54:31.441Z,0